CYWG

Winnipeg International

Airport
ICAO code
CYWG
Summary
ICAO Region
NAM
ICAO Territory
Location

Winnipeg, Manitoba,

Coordinates
49° 54' 36" N , 97° 14' 24" W
KCC
Dfb
Metar
Observation
CYWG 170900Z 22005KT 15SM SKC 19/18 A3003 RMK SLP171 DENSITY ALT 1300FT
Station
Winnipeg Int. Airportman.
Date/Time
2022-08-17 09:00:00
Wind direction
220°
Wind speed
05 kts
Lowest cloud amount
n/a
Temperature
19°C
Dew point
18°C
Humidity
93%
Weather condition
n/a

Description

International airport serving Winnipeg, Manitoba.

Climatology

Humid Continental climate (Köppen climate classification Dfb) - Variable weather patterns and a large seasonal temperature variance. Summers are often warm and humid with frequent thunderstorms and winters can be very cold with frequent snowfall and persistent snow cover.

Runways

Designator Length Width Surface Rops
7/25 1372 61 ASP Yes/Yes
13/31 2652 61 ASP Yes/Yes
18/36 3353 61 ASP Yes/Yes

Airport map

Aerial View

SKYbrary Partners:

Safety knowledge contributed by: